Time;durP1;ratioP1;P1;durP2;ratioP2;P2;SDS_P1;SDS_P2;PMS_P1;PMS_P2;Temp;Humidity;BMP_temperature;BMP_pressure;BME280_temperature;BME280_humidity;BME280_pressure;Samples;Min_cycle;Max_cycle;Signal;HPM_P1;HPM_P2
2023/05/25 00:00:00;;;;;;;8.93;2.97;;;10.50;99.90;;;;;;5136571;27;20085;-69
2023/05/25 00:02:26;;;;;;;7.80;2.88;;;10.40;99.90;;;;;;5137285;27;20082;-69
2023/05/25 00:04:52;;;;;;;5.93;3.17;;;10.40;99.90;;;;;;5118426;27;20432;-69
2023/05/25 00:07:17;;;;;;;5.38;2.58;;;10.40;99.90;;;;;;5135642;27;20134;-69
2023/05/25 00:09:45;;;;;;;4.70;2.25;;;10.30;99.90;;;;;;5136429;27;20039;-68
2023/05/25 00:12:11;;;;;;;6.90;3.22;;;10.30;99.90;;;;;;5136512;27;20444;-69
2023/05/25 00:14:37;;;;;;;10.73;2.90;;;10.30;99.90;;;;;;5137250;27;20375;-68
2023/05/25 00:17:02;;;;;;;6.47;3.70;;;10.30;99.90;;;;;;5136347;27;20054;-68
2023/05/25 00:19:32;;;;;;;8.85;2.90;;;10.20;99.90;;;;;;5118016;27;20111;-69
2023/05/25 00:22:01;;;;;;;6.47;3.42;;;10.20;99.90;;;;;;5136095;27;20480;-69
2023/05/25 00:24:29;;;;;;;9.52;3.25;;;10.20;99.90;;;;;;5136056;27;20122;-69
2023/05/25 00:26:56;;;;;;;6.40;2.92;;;10.10;99.90;;;;;;5136014;27;20103;-69
2023/05/25 00:29:22;;;;;;;7.93;3.08;;;10.10;99.90;;;;;;5136039;27;20078;-69
2023/05/25 00:31:49;;;;;;;9.25;2.92;;;10.10;99.90;;;;;;5136435;27;20043;-68
2023/05/25 00:34:15;;;;;;;8.57;3.30;;;10.00;99.90;;;;;;5136000;27;20055;-68
2023/05/25 00:36:47;;;;;;;8.05;3.10;;;10.10;99.90;;;;;;5135351;27;20086;-69
2023/05/25 00:39:17;;;;;;;10.38;3.22;;;10.10;99.90;;;;;;5101916;27;20043;-68
2023/05/25 00:41:44;;;;;;;9.82;3.50;;;10.10;99.90;;;;;;5135948;27;20047;-68
2023/05/25 00:44:13;;;;;;;7.15;3.42;;;10.10;99.90;;;;;;5135749;27;20448;-69
2023/05/25 00:46:51;;;;;;;9.07;3.28;;;10.10;99.90;;;;;;5135706;27;20043;-69
2023/05/25 00:49:18;;;;;;;9.30;3.17;;;10.10;99.90;;;;;;5135495;27;20497;-69
2023/05/25 00:51:45;;;;;;;8.77;3.38;;;10.10;99.90;;;;;;5135575;27;20047;-69
2023/05/25 00:54:15;;;;;;;7.75;3.17;;;10.10;99.90;;;;;;5118185;27;20401;-68
2023/05/25 00:56:45;;;;;;;9.60;3.53;;;10.10;99.90;;;;;;5135521;27;20051;-69
2023/05/25 00:59:16;;;;;;;8.82;3.30;;;10.10;99.90;;;;;;5135491;27;20092;-69
2023/05/25 01:01:44;;;;;;;6.15;3.20;;;10.10;99.90;;;;;;5135689;27;20046;-69
2023/05/25 01:04:14;;;;;;;6.05;3.00;;;10.10;99.90;;;;;;5135018;27;20047;-69
2023/05/25 01:06:43;;;;;;;7.45;3.08;;;10.00;99.90;;;;;;5134871;27;20054;-69
2023/05/25 01:09:12;;;;;;;11.15;3.58;;;10.00;99.90;;;;;;5135193;27;20173;-68
2023/05/25 01:11:41;;;;;;;9.77;3.47;;;10.00;99.90;;;;;;5135221;27;20054;-69
2023/05/25 01:14:08;;;;;;;7.50;3.65;;;10.00;99.90;;;;;;5135175;27;20064;-69
2023/05/25 01:16:36;;;;;;;10.77;3.30;;;10.10;99.90;;;;;;5135107;27;20543;-69
2023/05/25 01:19:02;;;;;;;8.10;3.70;;;9.90;99.90;;;;;;5135133;27;20095;-69
2023/05/25 01:21:40;;;;;;;9.70;4.00;;;10.00;99.90;;;;;;5135615;27;20042;-69
2023/05/25 01:24:29;;;;;;;6.82;3.33;;;9.90;99.90;;;;;;5135411;27;20107;-69
2023/05/25 01:27:26;;;;;;;9.43;3.67;;;9.90;99.90;;;;;;5134697;27;20510;-69
2023/05/25 01:29:54;;;;;;;6.90;3.80;;;9.90;99.90;;;;;;5131956;27;20047;-69
2023/05/25 01:32:20;;;;;;;7.78;3.70;;;9.90;99.90;;;;;;5134858;27;20039;-69
2023/05/25 01:34:49;;;;;;;6.47;3.15;;;9.80;99.90;;;;;;5134871;27;20050;-69
2023/05/25 01:37:16;;;;;;;7.05;3.60;;;9.80;99.90;;;;;;5134800;27;20054;-69
2023/05/25 01:39:42;;;;;;;7.47;3.10;;;9.80;99.90;;;;;;5135138;27;20039;-69
2023/05/25 01:42:08;;;;;;;7.05;3.53;;;9.80;99.90;;;;;;5116523;27;20079;-69
2023/05/25 01:44:35;;;;;;;6.38;3.00;;;9.70;99.90;;;;;;5116106;27;20039;-69
2023/05/25 01:47:36;;;;;;;5.75;3.35;;;9.70;99.90;;;;;;5134602;27;20122;-71
2023/05/25 01:50:12;;;;;;;6.35;3.03;;;9.70;99.90;;;;;;5120485;27;20597;-71
2023/05/25 01:52:44;;;;;;;7.88;3.28;;;9.70;99.90;;;;;;5135107;27;20111;-71
2023/05/25 01:55:16;;;;;;;6.40;3.15;;;9.70;99.90;;;;;;5135054;27;20471;-71
2023/05/25 01:57:45;;;;;;;4.72;3.33;;;9.60;99.90;;;;;;5116808;27;20051;-71
2023/05/25 02:00:12;;;;;;;11.23;3.25;;;9.60;99.90;;;;;;5100306;28;20039;-71
2023/05/25 02:02:41;;;;;;;7.15;3.53;;;9.60;99.90;;;;;;5116575;28;20054;-72
2023/05/25 02:05:07;;;;;;;7.30;3.40;;;9.60;99.90;;;;;;5116591;28;20047;-71
2023/05/25 02:07:33;;;;;;;5.88;2.90;;;9.60;99.90;;;;;;5135107;28;20058;-71
2023/05/25 02:09:59;;;;;;;6.15;3.03;;;9.50;99.90;;;;;;5117364;28;20047;-71
2023/05/25 02:12:25;;;;;;;11.40;4.05;;;9.50;99.90;;;;;;5099566;28;20047;-71
2023/05/25 02:14:51;;;;;;;9.40;3.42;;;9.50;99.90;;;;;;5099487;28;20039;-71
2023/05/25 02:17:16;;;;;;;8.60;3.15;;;9.50;99.90;;;;;;5120494;27;20041;-71
2023/05/25 02:19:43;;;;;;;7.50;3.00;;;9.40;99.90;;;;;;5138752;27;20035;-72
2023/05/25 02:22:09;;;;;;;6.72;3.30;;;9.40;99.90;;;;;;5103263;27;20050;-71
2023/05/25 02:24:36;;;;;;;6.65;2.75;;;9.40;99.90;;;;;;5103845;27;20108;-71
2023/05/25 02:27:03;;;;;;;6.32;3.05;;;9.40;99.90;;;;;;5138611;27;20047;-71
2023/05/25 02:29:29;;;;;;;9.40;3.38;;;9.40;99.90;;;;;;5138573;27;20039;-71
2023/05/25 02:31:55;;;;;;;6.93;2.80;;;9.30;99.90;;;;;;5120194;27;20050;-71
2023/05/25 02:34:21;;;;;;;6.78;3.00;;;9.30;99.90;;;;;;5120293;27;20039;-71
2023/05/25 02:36:46;;;;;;;5.70;2.85;;;9.30;99.90;;;;;;5138326;27;20043;-71
2023/05/25 02:39:12;;;;;;;5.97;3.03;;;9.30;99.90;;;;;;5119985;27;20046;-71
2023/05/25 02:41:38;;;;;;;7.70;3.70;;;9.30;99.90;;;;;;5138342;27;20077;-71
2023/05/25 02:44:05;;;;;;;6.25;2.97;;;9.20;99.90;;;;;;5138385;27;20126;-71
2023/05/25 02:46:32;;;;;;;7.88;3.33;;;9.20;99.90;;;;;;5138223;27;20043;-71
2023/05/25 02:48:58;;;;;;;7.32;3.33;;;9.20;99.90;;;;;;5138162;27;20054;-71
2023/05/25 02:51:24;;;;;;;6.82;3.55;;;9.20;99.90;;;;;;5138140;27;20122;-71
2023/05/25 02:53:50;;;;;;;9.25;3.25;;;9.20;99.90;;;;;;5138692;27;20069;-71
2023/05/25 02:56:16;;;;;;;7.78;3.30;;;9.20;99.90;;;;;;5119732;27;20054;-71
2023/05/25 02:58:42;;;;;;;7.40;3.40;;;9.20;99.90;;;;;;5119952;27;20495;-71
2023/05/25 03:01:09;;;;;;;7.47;3.72;;;9.20;99.90;;;;;;5119640;27;20069;-72
2023/05/25 03:03:35;;;;;;;9.57;4.70;;;9.20;99.90;;;;;;5138201;27;20047;-71
2023/05/25 03:06:03;;;;;;;9.82;3.95;;;9.20;99.90;;;;;;5137881;27;20475;-71
2023/05/25 03:08:29;;;;;;;8.07;3.47;;;9.20;99.90;;;;;;5137828;27;20047;-71
2023/05/25 03:10:55;;;;;;;8.40;3.90;;;9.20;99.90;;;;;;5137801;27;20076;-71
2023/05/25 03:13:21;;;;;;;10.65;3.60;;;9.20;99.90;;;;;;5137758;27;20093;-72
2023/05/25 03:15:46;;;;;;;7.65;3.20;;;9.30;99.90;;;;;;5103474;27;20348;-72
2023/05/25 03:18:12;;;;;;;9.77;3.30;;;9.30;99.90;;;;;;5119511;27;20035;-72
2023/05/25 03:20:38;;;;;;;7.43;3.45;;;9.30;99.90;;;;;;5137518;27;20065;-72
2023/05/25 03:23:03;;;;;;;9.88;4.22;;;9.40;99.90;;;;;;5119172;27;20081;-72
2023/05/25 03:25:30;;;;;;;5.95;2.92;;;9.40;99.90;;;;;;5119776;27;20047;-71
2023/05/25 03:27:56;;;;;;;9.25;3.97;;;9.40;99.90;;;;;;5118831;27;20155;-71
2023/05/25 03:30:22;;;;;;;10.02;3.45;;;9.40;99.90;;;;;;5137441;27;20078;-72
2023/05/25 03:32:48;;;;;;;6.18;3.30;;;9.40;99.90;;;;;;5119080;27;20048;-71
2023/05/25 03:35:13;;;;;;;7.40;3.10;;;9.40;99.90;;;;;;5137242;27;20051;-71
2023/05/25 03:37:39;;;;;;;7.80;3.17;;;9.40;99.90;;;;;;5137467;27;20126;-71
2023/05/25 03:40:06;;;;;;;5.90;3.17;;;9.40;99.90;;;;;;5137146;27;20475;-71
2023/05/25 03:42:31;;;;;;;6.32;3.35;;;9.40;99.90;;;;;;5137140;27;20546;-71
2023/05/25 03:44:57;;;;;;;6.68;3.38;;;9.40;99.90;;;;;;5102011;27;20079;-72
2023/05/25 03:47:22;;;;;;;5.15;2.97;;;9.30;99.90;;;;;;5137046;27;20043;-71
2023/05/25 03:49:48;;;;;;;8.93;3.47;;;9.40;99.90;;;;;;5119702;27;20050;-71
2023/05/25 03:52:14;;;;;;;6.47;3.22;;;9.40;99.90;;;;;;5102725;27;20047;-71
2023/05/25 03:54:39;;;;;;;10.20;4.63;;;9.30;99.90;;;;;;5137276;27;20043;-71
2023/05/25 03:57:05;;;;;;;11.32;5.43;;;9.40;99.90;;;;;;5119579;27;20143;-71
2023/05/25 03:59:31;;;;;;;6.32;3.47;;;9.30;99.90;;;;;;5118639;27;20543;-72
2023/05/25 04:01:56;;;;;;;4.63;3.20;;;9.40;99.90;;;;;;5118705;27;20039;-71
2023/05/25 04:04:22;;;;;;;7.18;3.17;;;9.30;99.90;;;;;;5136772;27;20074;-71
2023/05/25 04:06:48;;;;;;;6.72;3.03;;;9.40;99.90;;;;;;5101594;27;20047;-71
2023/05/25 04:09:14;;;;;;;5.78;3.10;;;9.50;99.90;;;;;;5119352;27;20035;-71
2023/05/25 04:11:40;;;;;;;8.90;3.38;;;9.40;99.90;;;;;;5118339;27;20039;-71
2023/05/25 04:14:05;;;;;;;5.93;3.50;;;9.40;99.90;;;;;;5136177;27;20054;-71
2023/05/25 04:16:31;;;;;;;7.80;3.63;;;9.50;99.90;;;;;;5102282;27;20135;-71
2023/05/25 04:18:57;;;;;;;8.82;3.42;;;9.40;99.90;;;;;;5136491;27;20076;-71
2023/05/25 04:21:23;;;;;;;10.77;3.80;;;9.40;99.90;;;;;;5117996;27;20088;-72
2023/05/25 04:23:48;;;;;;;8.52;3.40;;;9.40;99.90;;;;;;5136949;27;20054;-72
2023/05/25 04:26:15;;;;;;;5.93;3.35;;;9.50;99.90;;;;;;5101105;27;20134;-72
2023/05/25 04:28:41;;;;;;;9.23;3.72;;;9.60;99.90;;;;;;5136270;27;20051;-71
2023/05/25 04:31:07;;;;;;;9.50;3.45;;;9.50;99.90;;;;;;5135876;27;20039;-71
2023/05/25 04:33:37;;;;;;;8.93;3.67;;;9.60;99.90;;;;;;5136123;27;20082;-71
2023/05/25 04:36:06;;;;;;;9.00;3.60;;;9.60;99.90;;;;;;5136687;27;20122;-73
2023/05/25 04:38:32;;;;;;;6.57;3.63;;;9.70;99.90;;;;;;5135357;27;20119;-73
2023/05/25 04:41:04;;;;;;;5.32;2.88;;;9.70;99.90;;;;;;5136796;27;20451;-73
2023/05/25 04:43:30;;;;;;;12.13;4.03;;;9.80;99.90;;;;;;5135942;27;20051;-72
2023/05/25 04:45:56;;;;;;;6.28;3.60;;;9.80;99.90;;;;;;5117918;27;20043;-72
2023/05/25 04:48:23;;;;;;;13.13;4.30;;;9.80;99.90;;;;;;5101018;27;20055;-72
2023/05/25 04:50:49;;;;;;;6.70;3.53;;;9.90;99.90;;;;;;5100764;27;20075;-73
2023/05/25 04:53:15;;;;;;;6.45;3.20;;;9.90;99.90;;;;;;5118492;27;20065;-72
2023/05/25 04:55:41;;;;;;;8.40;3.63;;;9.90;99.90;;;;;;5117517;27;20043;-71
2023/05/25 04:58:06;;;;;;;7.70;4.05;;;10.00;99.90;;;;;;5117518;27;20087;-72
2023/05/25 05:00:33;;;;;;;8.95;3.72;;;10.00;99.90;;;;;;5135165;27;20121;-71
2023/05/25 05:02:59;;;;;;;9.93;3.67;;;10.10;99.90;;;;;;5117098;27;20047;-73
2023/05/25 05:05:25;;;;;;;6.78;3.63;;;10.10;99.90;;;;;;5117351;27;20498;-72
2023/05/25 05:07:52;;;;;;;7.57;3.75;;;10.20;99.90;;;;;;5135458;27;20047;-72
2023/05/25 05:10:18;;;;;;;8.57;3.75;;;10.20;99.90;;;;;;5135095;27;20513;-72
2023/05/25 05:12:44;;;;;;;7.05;3.40;;;10.30;99.90;;;;;;5135983;27;20087;-72
2023/05/25 05:15:10;;;;;;;7.43;3.60;;;10.30;99.90;;;;;;5117378;27;20466;-73
2023/05/25 05:17:36;;;;;;;9.10;3.55;;;10.40;99.90;;;;;;5116944;27;20047;-72
2023/05/25 05:20:03;;;;;;;10.38;4.28;;;10.40;99.90;;;;;;5117329;27;20130;-71
2023/05/25 05:22:31;;;;;;;7.90;4.07;;;10.50;99.90;;;;;;5135556;27;20055;-72
2023/05/25 05:24:57;;;;;;;7.20;3.55;;;10.60;99.90;;;;;;5117926;27;20058;-71
2023/05/25 05:27:25;;;;;;;11.45;3.88;;;10.60;99.90;;;;;;5135064;27;20043;-72
2023/05/25 05:29:50;;;;;;;8.45;3.55;;;10.70;99.90;;;;;;5135055;27;20470;-72
2023/05/25 05:32:16;;;;;;;9.52;4.40;;;10.80;99.90;;;;;;5135079;27;20043;-71
2023/05/25 05:34:41;;;;;;;6.07;3.53;;;10.90;99.90;;;;;;5116995;27;20050;-72
2023/05/25 05:37:07;;;;;;;10.13;4.32;;;10.90;99.90;;;;;;5116735;27;20058;-73
2023/05/25 05:39:33;;;;;;;7.43;4.05;;;11.00;99.90;;;;;;5134562;27;20039;-72
2023/05/25 05:41:59;;;;;;;13.10;4.40;;;11.00;99.90;;;;;;5117150;27;20047;-73
2023/05/25 05:44:24;;;;;;;7.18;3.53;;;11.00;99.90;;;;;;5099831;27;20039;-71
2023/05/25 05:46:50;;;;;;;10.73;3.95;;;11.10;99.90;;;;;;5099754;27;20035;-71
2023/05/25 05:49:16;;;;;;;8.50;3.67;;;11.20;99.90;;;;;;5116728;27;20051;-71
2023/05/25 05:51:42;;;;;;;8.02;3.15;;;11.20;99.90;;;;;;5134839;27;20126;-72
2023/05/25 05:54:07;;;;;;;6.53;3.75;;;11.30;99.90;;;;;;5135417;27;20463;-71
2023/05/25 05:56:33;;;;;;;10.68;3.85;;;11.30;99.90;;;;;;5117274;28;20383;-70
2023/05/25 05:58:59;;;;;;;5.53;2.75;;;11.40;99.90;;;;;;5134741;27;20084;-70
2023/05/25 06:01:24;;;;;;;9.93;3.03;;;11.40;99.90;;;;;;5116328;28;20043;-71
2023/05/25 06:03:53;;;;;;;3.78;1.85;;;11.60;99.90;;;;;;5134664;28;20459;-70
2023/05/25 06:06:18;;;;;;;8.38;2.03;;;11.60;99.90;;;;;;5117332;28;20044;-70
2023/05/25 06:08:45;;;;;;;5.80;2.10;;;11.70;99.90;;;;;;5134529;28;20372;-70
2023/05/25 06:11:10;;;;;;;6.10;2.05;;;11.80;99.90;;;;;;5134559;28;20043;-70
2023/05/25 06:13:36;;;;;;;5.13;1.90;;;11.80;99.90;;;;;;5115992;28;20051;-70
2023/05/25 06:16:02;;;;;;;6.47;2.53;;;11.90;99.90;;;;;;5134793;28;20121;-70
2023/05/25 06:18:27;;;;;;;6.80;2.08;;;12.00;99.90;;;;;;5134529;28;20390;-70
2023/05/25 06:20:53;;;;;;;6.90;1.77;;;12.00;99.90;;;;;;5116202;28;20051;-70
2023/05/25 06:23:19;;;;;;;10.40;2.40;;;12.00;99.90;;;;;;5134673;28;20180;-70
2023/05/25 06:25:45;;;;;;;6.72;2.05;;;12.00;99.90;;;;;;5134465;28;20043;-70
2023/05/25 06:28:11;;;;;;;10.18;2.10;;;12.00;99.90;;;;;;5135284;28;20144;-71
2023/05/25 06:30:37;;;;;;;7.75;1.80;;;12.10;99.90;;;;;;5134821;28;20043;-70
2023/05/25 06:33:02;;;;;;;12.35;2.47;;;12.10;99.90;;;;;;5134381;28;20047;-70
2023/05/25 06:35:28;;;;;;;7.60;1.90;;;12.20;99.90;;;;;;5116161;28;20069;-70
2023/05/25 06:37:54;;;;;;;7.38;1.92;;;12.20;99.90;;;;;;5099494;28;20382;-70
2023/05/25 06:40:20;;;;;;;10.57;2.70;;;12.30;99.90;;;;;;5135062;28;20047;-70
2023/05/25 06:42:46;;;;;;;14.32;2.45;;;12.30;99.90;;;;;;5134724;28;20051;-71
2023/05/25 06:45:12;;;;;;;13.85;2.65;;;12.40;99.90;;;;;;5116015;28;20047;-70
2023/05/25 06:47:38;;;;;;;10.90;2.53;;;12.40;99.90;;;;;;5116986;28;20047;-72
2023/05/25 06:50:05;;;;;;;12.27;2.15;;;12.50;99.90;;;;;;5134231;28;20489;-72
2023/05/25 06:52:31;;;;;;;11.55;2.53;;;12.50;99.90;;;;;;5134191;28;20062;-71
2023/05/25 06:54:56;;;;;;;7.13;2.30;;;12.60;99.90;;;;;;5115793;28;20039;-70
2023/05/25 06:57:23;;;;;;;9.25;2.85;;;12.70;99.90;;;;;;5134830;28;20054;-70
2023/05/25 06:59:49;;;;;;;9.63;2.58;;;12.80;99.90;;;;;;5133909;28;20104;-71
2023/05/25 07:02:14;;;;;;;10.95;2.88;;;12.80;99.90;;;;;;5135688;27;20491;-71
2023/05/25 07:04:40;;;;;;;8.93;2.65;;;12.80;99.90;;;;;;5120199;27;20050;-70
2023/05/25 07:07:06;;;;;;;10.70;2.08;;;12.80;99.90;;;;;;5138200;27;20046;-72
2023/05/25 07:09:32;;;;;;;11.40;2.15;;;12.80;99.90;;;;;;5119424;27;20118;-73
2023/05/25 07:11:58;;;;;;;9.02;1.83;;;12.80;99.90;;;;;;5102565;27;20079;-72
2023/05/25 07:14:24;;;;;;;10.85;1.98;;;12.80;99.90;;;;;;5137686;27;20047;-71
2023/05/25 07:16:50;;;;;;;10.93;2.30;;;12.80;99.90;;;;;;5137554;27;20130;-71
2023/05/25 07:19:16;;;;;;;10.25;2.30;;;12.80;99.90;;;;;;5119735;27;20180;-71
2023/05/25 07:21:41;;;;;;;9.85;2.65;;;12.80;99.90;;;;;;5137485;27;20133;-71
2023/05/25 07:24:07;;;;;;;9.10;2.50;;;12.80;99.90;;;;;;5138159;27;20047;-71
2023/05/25 07:26:35;;;;;;;9.48;2.65;;;12.90;99.90;;;;;;5119059;27;20058;-70
2023/05/25 07:29:00;;;;;;;10.50;2.42;;;13.00;99.90;;;;;;5121487;27;20046;-71
2023/05/25 07:31:26;;;;;;;8.57;2.25;;;13.00;99.90;;;;;;5137368;27;20035;-72
2023/05/25 07:33:54;;;;;;;5.88;2.40;;;13.10;99.90;;;;;;5137352;27;20066;-73
2023/05/25 07:36:20;;;;;;;20.08;2.72;;;13.10;99.90;;;;;;5138924;27;20051;-73
2023/05/25 07:38:46;;;;;;;10.13;2.33;;;13.20;99.90;;;;;;5137799;27;20364;-75
2023/05/25 07:41:12;;;;;;;10.35;2.97;;;13.20;99.90;;;;;;5137105;27;20078;-72
2023/05/25 07:43:39;;;;;;;13.43;2.35;;;13.20;99.90;;;;;;5102900;27;20086;-72
2023/05/25 07:46:05;;;;;;;14.23;2.58;;;13.30;99.90;;;;;;5137706;27;20051;-72
2023/05/25 07:48:30;;;;;;;14.98;2.63;;;13.40;99.90;;;;;;5137122;27;20043;-73
2023/05/25 07:50:56;;;;;;;10.68;2.40;;;13.50;99.90;;;;;;5137918;27;20039;-75
2023/05/25 07:53:22;;;;;;;12.10;2.50;;;13.50;99.90;;;;;;5137079;27;20051;-81
2023/05/25 07:55:48;;;;;;;12.55;2.30;;;13.50;99.90;;;;;;5118600;27;20050;-73
2023/05/25 07:58:13;;;;;;;11.95;2.38;;;13.50;99.90;;;;;;5136958;27;20035;-76
2023/05/25 08:00:39;;;;;;;10.48;2.15;;;13.60;99.90;;;;;;5137896;27;20089;-74
2023/05/25 08:03:05;;;;;;;12.27;2.90;;;13.60;99.90;;;;;;5136875;27;20126;-72
2023/05/25 08:05:31;;;;;;;17.20;2.83;;;13.60;99.90;;;;;;5118729;27;20102;-73
2023/05/25 08:07:56;;;;;;;14.48;3.20;;;13.50;99.90;;;;;;5118295;27;20043;-73
2023/05/25 08:10:22;;;;;;;13.10;2.50;;;13.50;99.90;;;;;;5136921;27;20043;-73
2023/05/25 08:12:49;;;;;;;10.48;2.30;;;13.60;99.90;;;;;;5135810;27;20050;-74
2023/05/25 08:15:15;;;;;;;12.32;3.10;;;13.60;99.90;;;;;;5136434;27;20082;-74
2023/05/25 08:17:41;;;;;;;11.73;2.90;;;13.60;99.90;;;;;;5136594;27;20078;-73
2023/05/25 08:20:07;;;;;;;18.50;2.97;;;13.60;99.90;;;;;;5118986;27;20117;-78
2023/05/25 08:22:34;;;;;;;15.82;2.88;;;13.70;99.90;;;;;;5114235;28;20091;-74
2023/05/25 08:24:59;;;;;;;11.70;2.25;;;13.70;99.90;;;;;;5115866;28;20047;-75
2023/05/25 08:27:25;;;;;;;10.40;2.50;;;13.70;99.90;;;;;;5115782;28;20055;-74
2023/05/25 08:29:51;;;;;;;13.95;2.35;;;13.70;99.90;;;;;;5115720;28;20031;-77
2023/05/25 08:32:17;;;;;;;10.57;2.20;;;13.80;99.90;;;;;;5114769;28;20402;-75
2023/05/25 08:34:42;;;;;;;8.48;2.25;;;13.80;99.90;;;;;;5116186;28;20043;-75
2023/05/25 08:37:08;;;;;;;10.60;2.47;;;13.90;99.90;;;;;;5115503;28;20067;-76
2023/05/25 08:39:34;;;;;;;10.65;2.13;;;14.00;99.90;;;;;;5115513;28;20095;-74
2023/05/25 08:41:59;;;;;;;12.60;2.55;;;14.10;99.90;;;;;;5114518;28;20051;-74
2023/05/25 08:44:27;;;;;;;8.38;2.47;;;14.20;99.90;;;;;;5097491;28;20575;-74
2023/05/25 08:46:55;;;;;;;14.63;3.35;;;14.30;99.90;;;;;;5097739;28;20054;-78
2023/05/25 08:49:21;;;;;;;8.85;2.10;;;14.30;99.90;;;;;;5115653;28;20380;-77
2023/05/25 08:51:50;;;;;;;13.35;2.95;;;14.20;99.90;;;;;;5114263;28;20047;-76
2023/05/25 08:54:38;;;;;;;13.57;2.97;;;14.20;99.90;;;;;;5114146;28;20051;-75
2023/05/25 08:57:30;;;;;;;16.35;2.60;;;14.20;99.90;;;;;;5114567;28;20052;-74
2023/05/25 09:00:02;;;;;;;12.15;2.53;;;14.20;99.90;;;;;;5105649;28;20052;-75
2023/05/25 09:02:49;;;;;;;8.02;1.88;;;14.20;99.90;;;;;;5113973;28;20051;-73
2023/05/25 09:05:16;;;;;;;10.70;3.08;;;14.10;99.90;;;;;;5114127;28;20054;-74
2023/05/25 09:07:42;;;;;;;11.93;2.03;;;14.10;99.90;;;;;;5115473;27;20104;-73
2023/05/25 09:10:10;;;;;;;11.45;2.40;;;14.10;99.90;;;;;;5113914;28;20059;-74
2023/05/25 09:12:37;;;;;;;8.45;2.15;;;14.10;99.90;;;;;;5114467;28;20360;-75
2023/05/25 09:15:03;;;;;;;7.68;2.50;;;14.20;99.90;;;;;;5115709;28;20483;-74
2023/05/25 09:17:30;;;;;;;10.02;1.80;;;14.20;99.90;;;;;;5113876;28;20044;-74
2023/05/25 09:19:56;;;;;;;10.75;2.17;;;14.10;99.90;;;;;;5114780;28;20066;-73
2023/05/25 09:22:22;;;;;;;13.13;2.45;;;14.20;99.90;;;;;;5119144;27;20051;-74
2023/05/25 09:24:48;;;;;;;6.78;1.80;;;14.20;99.90;;;;;;5135603;27;20474;-74
2023/05/25 09:27:19;;;;;;;7.28;1.73;;;14.30;99.90;;;;;;5116908;27;20043;-81
2023/05/25 09:29:49;;;;;;;12.07;2.50;;;14.30;99.90;;;;;;5135167;27;20041;-76
2023/05/25 09:32:16;;;;;;;9.02;2.13;;;14.30;99.90;;;;;;5135147;27;20109;-74
2023/05/25 09:34:46;;;;;;;13.52;3.08;;;14.30;99.90;;;;;;5134767;27;20486;-74
2023/05/25 09:37:17;;;;;;;9.23;2.13;;;14.30;99.90;;;;;;5134992;27;20074;-74
2023/05/25 09:39:43;;;;;;;13.13;2.65;;;14.40;99.90;;;;;;5134879;27;20039;-74
2023/05/25 09:42:10;;;;;;;10.55;2.28;;;14.40;99.90;;;;;;5116905;27;20078;-76
2023/05/25 09:44:36;;;;;;;8.02;2.38;;;14.50;99.90;;;;;;5135416;27;20051;-77
2023/05/25 09:47:03;;;;;;;7.80;2.00;;;14.60;99.90;;;;;;5099885;27;20125;-77
2023/05/25 09:49:29;;;;;;;11.77;2.70;;;14.60;99.90;;;;;;5117089;27;20374;-74
2023/05/25 09:51:55;;;;;;;5.80;1.98;;;14.60;99.90;;;;;;5116586;27;20054;-76
2023/05/25 09:54:21;;;;;;;9.30;2.30;;;14.60;99.90;;;;;;5116522;28;20043;-76
2023/05/25 09:56:47;;;;;;;9.65;2.63;;;14.60;99.90;;;;;;5135025;27;20542;-75
2023/05/25 09:59:13;;;;;;;10.10;2.40;;;14.60;99.90;;;;;;5134739;27;20094;-75
2023/05/25 10:01:39;;;;;;;8.13;2.25;;;14.60;99.90;;;;;;5099143;28;20074;-74
2023/05/25 10:04:05;;;;;;;12.25;2.90;;;14.60;99.90;;;;;;5134715;28;20088;-74
2023/05/25 10:06:32;;;;;;;11.88;2.30;;;14.60;99.90;;;;;;5116347;28;20035;-76
2023/05/25 10:08:58;;;;;;;10.50;2.65;;;14.60;99.90;;;;;;5116926;28;20035;-74
2023/05/25 10:11:26;;;;;;;12.10;2.47;;;14.50;99.90;;;;;;5116381;28;20047;-74
2023/05/25 10:13:54;;;;;;;13.43;3.13;;;14.50;99.90;;;;;;5099776;28;20134;-74
2023/05/25 10:16:25;;;;;;;12.65;2.45;;;14.50;99.90;;;;;;5116499;28;20050;-74
2023/05/25 10:19:04;;;;;;;14.43;3.17;;;14.50;99.90;;;;;;5116481;28;20047;-74
2023/05/25 10:21:32;;;;;;;10.02;2.25;;;14.60;99.90;;;;;;5134501;28;20043;-75
2023/05/25 10:24:08;;;;;;;15.15;2.80;;;14.60;99.90;;;;;;5135623;27;20062;-76
2023/05/25 10:26:38;;;;;;;16.05;2.65;;;14.70;99.90;;;;;;5135150;28;20075;-78
2023/05/25 10:29:05;;;;;;;11.70;3.05;;;14.70;99.90;;;;;;5134511;28;20065;-76
2023/05/25 10:31:33;;;;;;;18.83;3.33;;;14.80;99.90;;;;;;5116128;28;20043;-74
2023/05/25 10:34:00;;;;;;;15.10;2.55;;;14.70;99.90;;;;;;5099124;28;20184;-76
2023/05/25 10:36:26;;;;;;;14.85;3.35;;;14.80;99.90;;;;;;5100442;27;20102;-76
2023/05/25 10:38:53;;;;;;;8.00;2.60;;;14.80;99.90;;;;;;5138399;27;20039;-78
2023/05/25 10:41:19;;;;;;;9.40;3.15;;;14.80;99.90;;;;;;5120257;27;20047;-74
2023/05/25 10:43:46;;;;;;;11.60;2.60;;;14.70;99.90;;;;;;5120219;27;20081;-75
2023/05/25 10:46:13;;;;;;;10.70;2.95;;;14.70;99.90;;;;;;5138356;27;20112;-75
2023/05/25 10:48:47;;;;;;;10.80;2.47;;;14.70;99.90;;;;;;5138922;27;20105;-75
2023/05/25 10:51:13;;;;;;;8.57;1.83;;;14.80;99.90;;;;;;5138856;27;20039;-79
2023/05/25 10:53:46;;;;;;;12.32;2.70;;;14.80;99.90;;;;;;5119878;27;20432;-75
2023/05/25 10:56:13;;;;;;;7.93;2.08;;;14.80;99.90;;;;;;5138090;27;20046;-75
2023/05/25 10:58:45;;;;;;;13.10;2.92;;;14.80;99.90;;;;;;5120025;27;20122;-75
2023/05/25 11:01:13;;;;;;;12.68;2.58;;;14.80;99.90;;;;;;5086590;27;20100;-75
2023/05/25 11:03:56;;;;;;;13.43;2.63;;;14.90;99.90;;;;;;5138203;27;20070;-75
2023/05/25 11:06:44;;;;;;;10.70;2.55;;;14.90;99.90;;;;;;5137911;27;20399;-76
2023/05/25 11:09:27;;;;;;;11.05;2.78;;;14.90;99.90;;;;;;5138235;27;20162;-76
2023/05/25 11:11:54;;;;;;;11.25;3.65;;;14.90;99.90;;;;;;5137945;27;20075;-77
2023/05/25 11:14:29;;;;;;;16.95;3.55;;;15.00;99.90;;;;;;5138555;27;20353;-76
2023/05/25 11:17:14;;;;;;;11.95;2.65;;;14.90;99.90;;;;;;5119687;27;20047;-75
2023/05/25 11:19:50;;;;;;;10.65;2.95;;;15.00;99.90;;;;;;5138143;27;20138;-76
2023/05/25 11:22:29;;;;;;;12.70;3.17;;;15.00;99.90;;;;;;5137850;27;20470;-76
2023/05/25 11:24:58;;;;;;;11.32;2.90;;;15.00;99.90;;;;;;5137622;27;20054;-78
2023/05/25 11:27:26;;;;;;;13.88;2.55;;;15.10;99.90;;;;;;5119170;27;20047;-76
2023/05/25 11:29:53;;;;;;;13.02;2.63;;;15.20;99.90;;;;;;5137527;27;20070;-77
2023/05/25 11:32:19;;;;;;;16.00;2.53;;;15.00;99.90;;;;;;5137466;27;20051;-77
2023/05/25 11:34:52;;;;;;;15.73;4.03;;;15.00;99.90;;;;;;5119301;27;20043;-75
2023/05/25 11:37:20;;;;;;;10.15;2.70;;;15.00;99.90;;;;;;5118979;27;20069;-78
2023/05/25 11:39:52;;;;;;;14.05;2.88;;;15.00;99.90;;;;;;5119871;27;20479;-76
2023/05/25 11:42:21;;;;;;;10.38;2.63;;;15.00;99.90;;;;;;5137775;27;20088;-77
2023/05/25 11:44:47;;;;;;;11.15;2.55;;;15.00;99.90;;;;;;5137175;27;20085;-77
2023/05/25 11:47:13;;;;;;;14.80;3.30;;;15.00;99.90;;;;;;5118763;27;20047;-77
2023/05/25 11:49:45;;;;;;;9.10;2.03;;;15.10;99.90;;;;;;5101953;27;20456;-78
2023/05/25 11:52:13;;;;;;;15.95;2.90;;;15.00;99.90;;;;;;5137764;27;20047;-77
2023/05/25 11:54:42;;;;;;;14.85;2.88;;;15.10;99.90;;;;;;5118955;27;20043;-77
2023/05/25 11:57:18;;;;;;;12.45;2.95;;;15.10;99.90;;;;;;5119379;27;20051;-77
2023/05/25 11:59:52;;;;;;;15.45;3.33;;;15.20;99.90;;;;;;5137447;27;20416;-77
2023/05/25 12:02:19;;;;;;;10.60;3.20;;;15.20;99.90;;;;;;5136946;27;20058;-77
2023/05/25 12:04:56;;;;;;;10.95;2.80;;;15.20;99.90;;;;;;5136851;27;20180;-79
2023/05/25 12:07:22;;;;;;;11.60;2.92;;;15.30;99.90;;;;;;5118401;27;20050;-84
2023/05/25 12:09:48;;;;;;;21.17;3.70;;;15.40;99.90;;;;;;5118629;27;20379;-77
2023/05/25 12:12:13;;;;;;;13.90;2.90;;;15.30;99.90;;;;;;5118574;27;20035;-76
2023/05/25 12:14:49;;;;;;;10.27;3.13;;;15.30;99.90;;;;;;5119346;27;20393;-76
2023/05/25 12:17:20;;;;;;;12.18;2.45;;;15.20;99.90;;;;;;5136608;27;20112;-78
2023/05/25 12:19:46;;;;;;;12.10;2.70;;;15.30;99.90;;;;;;5101258;27;20063;-79
2023/05/25 12:22:13;;;;;;;12.70;3.50;;;15.30;99.90;;;;;;5136400;27;20088;-81
2023/05/25 12:24:39;;;;;;;14.70;3.67;;;15.30;99.90;;;;;;5137320;27;20106;-77
2023/05/25 12:27:16;;;;;;;13.20;3.22;;;15.30;99.90;;;;;;5136664;27;20043;-75
2023/05/25 12:29:46;;;;;;;15.52;2.75;;;15.20;99.90;;;;;;5118641;27;20046;-77
2023/05/25 12:32:12;;;;;;;11.35;2.67;;;15.20;99.90;;;;;;5136332;27;20043;-76
2023/05/25 12:34:38;;;;;;;13.73;2.53;;;15.20;99.90;;;;;;5118915;27;20043;-77
2023/05/25 12:37:03;;;;;;;15.30;2.97;;;15.20;99.90;;;;;;5136185;27;20043;-78
2023/05/25 12:39:29;;;;;;;16.10;3.33;;;15.20;99.90;;;;;;5117823;27;20073;-74
2023/05/25 12:41:56;;;;;;;13.15;3.22;;;15.30;99.90;;;;;;5117664;27;20125;-77
2023/05/25 12:44:30;;;;;;;11.90;3.17;;;15.30;99.90;;;;;;5100832;27;20047;-77
2023/05/25 12:46:56;;;;;;;12.95;2.92;;;15.30;99.90;;;;;;5136032;27;20047;-79